createdAt,value
2022-10-12T00:01:07.123Z,100.00
2022-10-12T00:03:55.364Z,100.00
2022-10-12T00:06:37.363Z,100.00
2022-10-12T00:09:24.383Z,100.00
2022-10-12T00:11:57.440Z,100.00
2022-10-12T00:14:44.363Z,100.00
2022-10-12T00:17:17.444Z,100.00
2022-10-12T00:20:04.340Z,100.00
2022-10-12T00:22:45.411Z,100.00
2022-10-12T00:25:39.365Z,100.00
2022-10-12T00:28:27.402Z,100.00
2022-10-12T00:31:00.470Z,100.00
2022-10-12T00:33:48.336Z,100.00
2022-10-12T00:36:25.456Z,100.00
2022-10-12T00:39:14.381Z,100.00
2022-10-12T00:41:57.357Z,100.00
2022-10-12T00:45:00.389Z,100.00
2022-10-12T00:48:02.386Z,100.00
2022-10-12T00:50:51.362Z,100.00
2022-10-12T00:53:31.708Z,100.00
2022-10-12T00:56:25.410Z,100.00
2022-10-12T00:58:59.445Z,100.00
2022-10-12T01:01:46.389Z,100.00
2022-10-12T01:04:21.471Z,100.00
2022-10-12T01:07:13.409Z,100.00
2022-10-12T01:09:55.360Z,100.00
2022-10-12T01:12:45.360Z,100.00
2022-10-12T01:15:19.445Z,100.00
2022-10-12T01:18:17.361Z,100.00
2022-10-12T01:21:22.404Z,100.00
2022-10-12T01:24:37.359Z,100.00
2022-10-12T01:27:42.406Z,100.00
2022-10-12T01:30:22.564Z,100.00
2022-10-12T01:33:24.407Z,100.00
2022-10-12T01:36:19.403Z,100.00
2022-10-12T01:39:17.366Z,100.00
2022-10-12T01:42:02.393Z,100.00
2022-10-12T01:44:56.414Z,100.00
2022-10-12T01:47:46.394Z,100.00
2022-10-12T01:50:22.483Z,100.00
2022-10-12T01:53:27.399Z,100.00
2022-10-12T01:56:06.465Z,100.00
2022-10-12T01:59:15.442Z,100.00
2022-10-12T02:02:02.409Z,100.00
2022-10-12T02:05:13.410Z,100.00
2022-10-12T02:08:13.411Z,100.00
2022-10-12T02:11:31.405Z,100.00
2022-10-12T02:14:23.410Z,100.00
2022-10-12T02:17:07.400Z,100.00
2022-10-12T02:20:04.408Z,100.00
2022-10-12T02:22:49.410Z,100.00
2022-10-12T02:25:44.416Z,100.00
2022-10-12T02:28:40.448Z,100.00
2022-10-12T02:32:00.395Z,100.00
2022-10-12T02:34:54.421Z,100.00
2022-10-12T02:37:37.619Z,100.00
2022-10-12T02:40:45.411Z,100.00
2022-10-12T02:43:27.449Z,100.00
2022-10-12T02:46:16.394Z,100.00
2022-10-12T02:48:53.499Z,100.00
2022-10-12T02:51:42.394Z,100.00
2022-10-12T02:54:15.470Z,100.00
2022-10-12T02:57:02.421Z,100.00
2022-10-12T02:59:35.470Z,100.00
2022-10-12T03:02:22.408Z,100.00
2022-10-12T03:04:55.503Z,100.00
2022-10-12T03:07:42.417Z,100.00
2022-10-12T03:10:15.463Z,100.00
2022-10-12T03:13:02.400Z,100.00
2022-10-12T03:15:35.465Z,100.00
2022-10-12T03:18:22.404Z,100.00
2022-10-12T03:20:55.479Z,100.00
2022-10-12T03:23:49.407Z,100.00
2022-10-12T03:26:36.408Z,100.00
2022-10-12T03:29:09.477Z,100.00
2022-10-12T03:31:56.408Z,100.00
2022-10-12T03:34:29.542Z,100.00
2022-10-12T03:37:16.406Z,100.00
2022-10-12T03:39:49.636Z,100.00
2022-10-12T03:42:36.395Z,100.00
2022-10-12T03:45:09.897Z,100.00
2022-10-12T03:47:58.973Z,100.00
2022-10-12T03:50:35.073Z,100.00
2022-10-12T03:53:21.433Z,100.00
2022-10-12T03:55:57.473Z,100.00
2022-10-12T03:58:44.426Z,100.00
2022-10-12T04:01:17.509Z,100.00
2022-10-12T04:04:04.428Z,100.00
2022-10-12T04:06:37.554Z,100.00
2022-10-12T04:09:24.439Z,100.00
2022-10-12T04:12:12.428Z,100.00
2022-10-12T04:14:59.422Z,100.00
2022-10-12T04:17:39.785Z,100.00
2022-10-12T04:20:33.407Z,100.00
2022-10-12T04:23:27.444Z,100.00
2022-10-12T04:26:15.430Z,100.00
2022-10-12T04:28:51.638Z,100.00
2022-10-12T04:31:38.437Z,100.00
2022-10-12T04:34:18.429Z,100.00
2022-10-12T04:37:12.437Z,100.00
2022-10-12T04:39:59.429Z,100.00
2022-10-12T04:42:35.548Z,100.00
2022-10-12T04:45:22.434Z,100.00
2022-10-12T04:47:56.626Z,100.00
2022-10-12T04:50:43.449Z,100.00
2022-10-12T04:53:16.503Z,100.00
2022-10-12T04:56:03.456Z,100.00
2022-10-12T04:58:43.432Z,100.00
2022-10-12T05:01:30.483Z,100.00
2022-10-12T05:04:03.565Z,100.00
2022-10-12T05:06:50.441Z,100.00
2022-10-12T05:09:30.454Z,100.00
2022-10-12T05:12:24.437Z,100.00
2022-10-12T05:15:11.464Z,100.00
2022-10-12T05:17:44.516Z,100.00
2022-10-12T05:20:31.447Z,100.00
2022-10-12T05:23:05.548Z,100.00
2022-10-12T05:25:52.460Z,100.00
2022-10-12T05:28:25.611Z,100.00
2022-10-12T05:31:12.436Z,100.00
2022-10-12T05:33:52.464Z,100.00
2022-10-12T05:36:46.474Z,100.00
2022-10-12T05:39:40.448Z,100.00
2022-10-12T05:42:27.462Z,100.00
2022-10-12T05:45:00.577Z,100.00
2022-10-12T05:47:47.473Z,100.00
2022-10-12T05:50:27.466Z,100.00
2022-10-12T05:53:21.464Z,100.00
2022-10-12T05:56:15.451Z,100.00
2022-10-12T05:59:02.454Z,100.00
2022-10-12T06:01:35.761Z,100.00
2022-10-12T06:04:23.471Z,100.00
2022-10-12T06:06:56.608Z,100.00
2022-10-12T06:09:46.466Z,100.00
2022-10-12T06:12:19.725Z,100.00
2022-10-12T06:15:06.480Z,100.00
2022-10-12T06:17:46.486Z,100.00
2022-10-12T06:20:33.492Z,100.00
2022-10-12T06:23:06.625Z,100.00
2022-10-12T06:26:01.491Z,100.00
2022-10-12T06:28:48.564Z,100.00
2022-10-12T06:31:21.555Z,100.00
2022-10-12T06:34:08.501Z,100.00
2022-10-12T06:36:41.645Z,100.00
2022-10-12T06:39:28.493Z,100.00
2022-10-12T06:42:01.685Z,100.00
2022-10-12T06:44:48.481Z,100.00
2022-10-12T06:47:21.577Z,100.00
2022-10-12T06:50:08.477Z,100.00
2022-10-12T06:52:43.584Z,100.00
2022-10-12T06:55:30.484Z,100.00
2022-10-12T06:58:03.579Z,100.00
2022-10-12T07:00:50.509Z,100.00
2022-10-12T07:03:30.492Z,100.00
2022-10-12T07:06:20.622Z,100.00
2022-10-12T07:09:00.503Z,100.00
2022-10-12T07:11:50.508Z,100.00
2022-10-12T07:14:30.489Z,100.00
2022-10-12T07:17:24.487Z,100.00
2022-10-12T07:20:19.551Z,100.00
2022-10-12T07:23:13.555Z,100.00
2022-10-12T07:26:08.510Z,100.00
2022-10-12T07:28:56.967Z,100.00
2022-10-12T07:31:37.555Z,100.00
2022-10-12T07:34:31.556Z,100.00
2022-10-12T07:37:25.651Z,100.00
2022-10-12T07:40:19.554Z,100.00
2022-10-12T07:43:15.823Z,100.00
2022-10-12T07:45:56.562Z,100.00
2022-10-12T07:48:49.717Z,100.00
2022-10-12T07:51:30.533Z,100.00
2022-10-12T07:54:29.148Z,100.00
2022-10-12T07:57:16.530Z,100.00
2022-10-12T07:59:49.580Z,100.00
2022-10-12T08:02:36.501Z,100.00
2022-10-12T08:05:09.695Z,100.00
2022-10-12T08:07:59.555Z,100.00
2022-10-12T08:10:32.615Z,100.00
2022-10-12T08:13:22.518Z,100.00
2022-10-12T08:15:56.618Z,100.00
2022-10-12T08:18:43.555Z,98.86
2022-10-12T08:21:18.710Z,99.88
2022-10-12T08:24:15.563Z,98.18
2022-10-12T08:27:09.558Z,97.70
2022-10-12T08:29:56.575Z,98.10
2022-10-12T08:32:36.571Z,97.42
2022-10-12T08:35:30.509Z,95.53
2022-10-12T08:38:25.557Z,94.18
2022-10-12T08:41:33.583Z,95.10
2022-10-12T08:44:27.651Z,94.64
2022-10-12T08:47:41.969Z,94.61
2022-10-12T08:50:24.678Z,94.42
2022-10-12T08:53:18.621Z,93.93
2022-10-12T08:56:00.587Z,92.42
2022-10-12T08:58:47.562Z,93.02
2022-10-12T09:01:58.709Z,93.13
2022-10-12T09:05:00.591Z,91.38
2022-10-12T09:07:44.591Z,92.59
2022-10-12T09:11:08.629Z,91.20
2022-10-12T09:14:11.558Z,91.99
2022-10-12T09:16:49.679Z,90.39
2022-10-12T09:19:44.585Z,88.70
2022-10-12T09:22:32.571Z,88.91
2022-10-12T09:25:28.577Z,89.33
2022-10-12T09:28:52.593Z,88.49
2022-10-12T09:31:54.590Z,89.11
2022-10-12T09:34:30.680Z,89.51
2022-10-12T09:37:32.636Z,88.08
2022-10-12T09:40:06.668Z,88.64
2022-10-12T09:42:53.558Z,89.10
2022-10-12T09:45:35.578Z,88.26
2022-10-12T09:48:29.585Z,87.26
2022-10-12T09:51:08.681Z,85.01
2022-10-12T09:53:57.808Z,84.07
2022-10-12T09:56:33.694Z,85.71
2022-10-12T09:59:38.581Z,86.03
2022-10-12T10:02:14.693Z,85.33
2022-10-12T10:05:01.560Z,85.32
2022-10-12T10:07:40.688Z,85.54
2022-10-12T10:10:31.822Z,85.89
2022-10-12T10:13:06.692Z,85.85
2022-10-12T10:15:56.631Z,84.95
2022-10-12T10:18:39.698Z,85.96
2022-10-12T10:21:41.577Z,85.31
2022-10-12T10:24:31.699Z,84.75
2022-10-12T10:27:36.628Z,84.95
2022-10-12T10:30:33.890Z,83.71
2022-10-12T10:33:26.720Z,84.38
2022-10-12T10:36:30.109Z,84.87
2022-10-12T10:39:27.577Z,85.54
2022-10-12T10:42:01.689Z,86.32
2022-10-12T10:44:57.665Z,84.81
2022-10-12T10:47:37.594Z,85.93
2022-10-12T10:50:51.579Z,84.69
2022-10-12T10:53:37.656Z,85.56
2022-10-12T10:56:34.638Z,83.46
2022-10-12T10:59:27.658Z,82.70
2022-10-12T11:02:06.801Z,84.45
2022-10-12T11:05:22.635Z,83.73
2022-10-12T11:08:09.587Z,85.24
2022-10-12T11:11:09.596Z,86.67
2022-10-12T11:13:46.705Z,84.37
2022-10-12T11:16:48.647Z,85.40
2022-10-12T11:19:43.652Z,85.52
2022-10-12T11:22:46.648Z,85.26
2022-10-12T11:25:49.272Z,84.46
2022-10-12T11:28:46.720Z,83.93
2022-10-12T11:31:44.627Z,82.95
2022-10-12T11:34:26.095Z,82.54
2022-10-12T11:37:21.662Z,82.89
2022-10-12T11:40:05.652Z,80.04
2022-10-12T11:42:55.710Z,83.27
2022-10-12T11:45:40.673Z,83.94
2022-10-12T11:48:35.657Z,83.37
2022-10-12T11:51:17.656Z,82.88
2022-10-12T11:54:16.137Z,83.25
2022-10-12T11:57:02.623Z,84.52
2022-10-12T12:00:04.687Z,82.48
2022-10-12T12:03:34.699Z,81.84
2022-10-12T12:06:41.662Z,82.62
2022-10-12T12:09:50.342Z,82.50
2022-10-12T12:12:44.678Z,82.18
2022-10-12T12:15:31.659Z,81.31
2022-10-12T12:18:18.732Z,81.83
2022-10-12T12:21:11.758Z,82.25
2022-10-12T12:23:49.697Z,83.21
2022-10-12T12:26:37.656Z,83.71
2022-10-12T12:29:22.754Z,82.16
2022-10-12T12:32:09.667Z,82.88
2022-10-12T12:34:42.866Z,83.26
2022-10-12T12:37:35.702Z,83.63
2022-10-12T12:40:19.663Z,83.18
2022-10-12T12:43:41.704Z,83.79
2022-10-12T12:46:25.659Z,84.97
2022-10-12T12:49:39.666Z,84.98
2022-10-12T12:52:43.166Z,84.05
2022-10-12T12:55:21.741Z,84.13
2022-10-12T12:58:26.665Z,84.84
2022-10-12T13:01:51.736Z,83.47
2022-10-12T13:05:24.678Z,84.42
2022-10-12T13:08:33.703Z,83.63
2022-10-12T13:11:09.748Z,84.49
2022-10-12T13:14:27.660Z,84.24
2022-10-12T13:17:32.285Z,83.81
2022-10-12T13:20:39.699Z,84.62
2022-10-12T13:23:30.679Z,83.94
2022-10-12T13:26:15.686Z,85.29
2022-10-12T13:29:03.707Z,84.18
2022-10-12T13:31:51.751Z,84.51
2022-10-12T13:34:44.659Z,85.00
2022-10-12T13:37:20.732Z,84.31
2022-10-12T13:40:07.669Z,84.22
2022-10-12T13:42:41.751Z,83.83
2022-10-12T13:45:28.681Z,84.00
2022-10-12T13:48:10.799Z,84.07
2022-10-12T13:51:02.700Z,83.25
2022-10-12T13:53:45.726Z,84.73
2022-10-12T13:56:36.700Z,83.73
2022-10-12T13:59:12.570Z,84.51
2022-10-12T14:02:08.690Z,84.09
2022-10-12T14:04:48.705Z,83.92
2022-10-12T14:07:54.694Z,84.63
2022-10-12T14:10:50.704Z,83.90
2022-10-12T14:13:40.683Z,85.44
2022-10-12T14:16:13.772Z,83.84
2022-10-12T14:19:00.707Z,82.92
2022-10-12T14:21:37.025Z,83.67
2022-10-12T14:24:32.711Z,85.10
2022-10-12T14:27:37.679Z,86.08
2022-10-12T14:30:28.697Z,84.92
2022-10-12T14:33:15.788Z,85.45
2022-10-12T14:36:37.694Z,85.51
2022-10-12T14:39:20.824Z,85.90
2022-10-12T14:42:10.703Z,86.42
2022-10-12T14:44:56.696Z,85.50
2022-10-12T14:47:53.721Z,85.57
2022-10-12T14:50:40.691Z,86.74
2022-10-12T14:53:17.775Z,86.04
2022-10-12T14:56:04.716Z,86.17
2022-10-12T14:58:38.021Z,85.95
2022-10-12T15:01:24.788Z,86.03
2022-10-12T15:03:57.773Z,86.80
2022-10-12T15:06:49.811Z,88.09
2022-10-12T15:09:30.718Z,87.32
2022-10-12T15:12:23.709Z,88.78
2022-10-12T15:15:05.736Z,88.52
2022-10-12T15:17:59.735Z,88.96
2022-10-12T15:20:55.738Z,88.67
2022-10-12T15:23:49.783Z,89.51
2022-10-12T15:26:43.739Z,90.12
2022-10-12T15:29:30.704Z,90.88
2022-10-12T15:32:10.716Z,90.73
2022-10-12T15:34:58.721Z,90.30
2022-10-12T15:37:32.112Z,89.52
2022-10-12T15:40:18.728Z,89.53
2022-10-12T15:42:51.797Z,89.62
2022-10-12T15:45:41.703Z,90.30
2022-10-12T15:48:15.822Z,90.21
2022-10-12T15:51:02.722Z,90.77
2022-10-12T15:53:35.797Z,90.87
2022-10-12T15:56:23.713Z,91.03
2022-10-12T15:58:56.812Z,91.55
2022-10-12T16:01:44.733Z,91.88
2022-10-12T16:04:20.797Z,92.25
2022-10-12T16:07:08.746Z,92.34
2022-10-12T16:09:41.836Z,92.54
2022-10-12T16:12:28.737Z,92.86
2022-10-12T16:15:01.810Z,93.31
2022-10-12T16:17:48.729Z,93.57
2022-10-12T16:20:29.776Z,93.47
2022-10-12T16:23:28.726Z,94.37
2022-10-12T16:26:25.771Z,94.13
2022-10-12T16:29:15.518Z,94.11
2022-10-12T16:31:48.816Z,93.90
2022-10-12T16:34:36.758Z,94.55
2022-10-12T16:37:16.754Z,94.41
2022-10-12T16:40:03.746Z,94.77
2022-10-12T16:42:36.893Z,94.57
2022-10-12T16:45:23.765Z,94.66
2022-10-12T16:47:56.823Z,94.38
2022-10-12T16:50:46.755Z,94.79
2022-10-12T16:53:19.854Z,94.60
2022-10-12T16:56:06.767Z,95.11
2022-10-12T16:58:39.833Z,95.23
2022-10-12T17:01:26.779Z,95.91
2022-10-12T17:04:08.778Z,96.02
2022-10-12T17:07:02.748Z,95.96
2022-10-12T17:09:56.742Z,96.04
2022-10-12T17:12:43.796Z,96.59
2022-10-12T17:15:16.868Z,96.56
2022-10-12T17:18:04.756Z,96.62
2022-10-12T17:20:37.888Z,96.44
2022-10-12T17:23:24.759Z,96.80
2022-10-12T17:26:05.848Z,97.08
2022-10-12T17:28:52.828Z,97.02
2022-10-12T17:31:26.295Z,97.45
2022-10-12T17:34:13.756Z,97.73
2022-10-12T17:36:46.908Z,97.52
2022-10-12T17:39:36.816Z,97.78
2022-10-12T17:42:18.209Z,97.48
2022-10-12T17:45:11.823Z,97.80
2022-10-12T17:47:58.768Z,98.00
2022-10-12T17:50:31.852Z,98.04
2022-10-12T17:53:18.783Z,98.17
2022-10-12T17:55:54.544Z,98.49
2022-10-12T17:58:44.775Z,98.67
2022-10-12T18:01:21.108Z,99.20
2022-10-12T18:04:09.805Z,99.26
2022-10-12T18:06:42.918Z,99.18
2022-10-12T18:09:29.827Z,99.38
2022-10-12T18:12:02.866Z,99.18
2022-10-12T18:14:49.897Z,99.54
2022-10-12T18:17:22.942Z,99.15
2022-10-12T18:20:10.807Z,99.33
2022-10-12T18:22:43.872Z,99.38
2022-10-12T18:25:37.816Z,99.47
2022-10-12T18:28:31.849Z,99.63
2022-10-12T18:31:24.808Z,99.48
2022-10-12T18:33:58.914Z,100.00
2022-10-12T18:36:47.807Z,100.00
2022-10-12T18:39:27.825Z,99.99
2022-10-12T18:42:21.829Z,99.84
2022-10-12T18:45:15.791Z,100.00
2022-10-12T18:48:02.790Z,99.90
2022-10-12T18:50:42.812Z,100.00
2022-10-12T18:53:36.783Z,100.00
2022-10-12T18:56:24.814Z,100.00
2022-10-12T18:58:57.951Z,100.00
2022-10-12T19:01:44.802Z,100.00
2022-10-12T19:04:25.824Z,100.00
2022-10-12T19:07:12.832Z,100.00
2022-10-12T19:09:52.912Z,100.00
2022-10-12T19:12:46.810Z,100.00
2022-10-12T19:15:35.757Z,100.00
2022-10-12T19:18:09.069Z,100.00
2022-10-12T19:20:55.824Z,100.00
2022-10-12T19:23:28.876Z,100.00
2022-10-12T19:26:22.817Z,100.00
2022-10-12T19:28:58.453Z,100.00
2022-10-12T19:31:48.812Z,100.00
2022-10-12T19:34:24.113Z,100.00
2022-10-12T19:37:10.817Z,100.00
2022-10-12T19:39:53.800Z,100.00
2022-10-12T19:42:47.848Z,100.00
2022-10-12T19:45:34.842Z,100.00
2022-10-12T19:48:07.948Z,100.00
2022-10-12T19:50:54.818Z,100.00
2022-10-12T19:53:28.148Z,100.00
2022-10-12T19:56:17.855Z,100.00
2022-10-12T19:58:52.931Z,100.00
2022-10-12T20:01:44.823Z,100.00
2022-10-12T20:04:17.984Z,100.00
2022-10-12T20:07:04.839Z,100.00
2022-10-12T20:09:37.919Z,100.00
2022-10-12T20:12:24.827Z,100.00
2022-10-12T20:14:57.918Z,100.00
2022-10-12T20:17:45.843Z,100.00
2022-10-12T20:20:25.880Z,100.00
2022-10-12T20:23:19.833Z,100.00
2022-10-12T20:26:13.841Z,100.00
2022-10-12T20:29:01.850Z,100.00
2022-10-12T20:31:35.055Z,100.00
2022-10-12T20:34:21.868Z,100.00
2022-10-12T20:36:54.940Z,100.00
2022-10-12T20:39:41.851Z,100.00
2022-10-12T20:42:19.192Z,100.00
2022-10-12T20:45:07.828Z,100.00
2022-10-12T20:47:40.958Z,100.00
2022-10-12T20:50:27.836Z,100.00
2022-10-12T20:53:00.936Z,100.00
2022-10-12T20:55:47.834Z,100.00
2022-10-12T20:58:24.370Z,100.00
2022-10-12T21:01:16.909Z,100.00
2022-10-12T21:03:49.996Z,100.00
2022-10-12T21:06:36.874Z,100.00
2022-10-12T21:09:11.938Z,100.00
2022-10-12T21:11:58.879Z,100.00
2022-10-12T21:14:31.939Z,100.00
2022-10-12T21:17:18.838Z,100.00
2022-10-12T21:19:53.718Z,100.00
2022-10-12T21:22:33.845Z,100.00
2022-10-12T21:25:20.879Z,100.00
2022-10-12T21:28:07.883Z,100.00
2022-10-12T21:30:47.874Z,100.00
2022-10-12T21:33:41.850Z,100.00
2022-10-12T21:36:30.867Z,100.00
2022-10-12T21:39:04.950Z,100.00
2022-10-12T21:41:51.867Z,100.00
2022-10-12T21:44:24.993Z,100.00
2022-10-12T21:47:15.992Z,100.00
2022-10-12T21:49:50.960Z,100.00
2022-10-12T21:52:37.894Z,100.00
2022-10-12T21:55:10.957Z,100.00
2022-10-12T21:57:57.874Z,100.00
2022-10-12T22:00:31.006Z,100.00
2022-10-12T22:03:17.862Z,100.00
2022-10-12T22:05:51.963Z,100.00
2022-10-12T22:08:31.863Z,100.00
2022-10-12T22:11:15.067Z,100.00
2022-10-12T22:13:55.911Z,100.00
2022-10-12T22:16:36.793Z,100.00
2022-10-12T22:19:21.893Z,100.00
2022-10-12T22:22:01.946Z,100.00
2022-10-12T22:24:41.902Z,100.00
2022-10-12T22:27:28.891Z,100.00
2022-10-12T22:30:15.917Z,100.00
2022-10-12T22:32:49.038Z,100.00
2022-10-12T22:35:35.873Z,100.00
2022-10-12T22:38:09.593Z,100.00
2022-10-12T22:41:07.888Z,100.00
2022-10-12T22:43:40.967Z,100.00
2022-10-12T22:46:29.898Z,100.00
2022-10-12T22:49:04.207Z,100.00
2022-10-12T22:51:51.104Z,100.00
2022-10-12T22:54:23.959Z,100.00
2022-10-12T22:57:10.895Z,100.00
2022-10-12T22:59:43.965Z,100.00
2022-10-12T23:02:30.929Z,100.00
2022-10-12T23:05:03.985Z,100.00
2022-10-12T23:07:50.905Z,100.00
2022-10-12T23:10:24.096Z,100.00
2022-10-12T23:13:10.916Z,100.00
2022-10-12T23:15:44.044Z,100.00
2022-10-12T23:18:30.897Z,100.00
2022-10-12T23:21:19.918Z,100.00
2022-10-12T23:23:53.159Z,100.00
2022-10-12T23:26:40.914Z,100.00
2022-10-12T23:29:34.937Z,100.00
2022-10-12T23:32:22.925Z,100.00
2022-10-12T23:34:56.001Z,100.00
2022-10-12T23:37:44.264Z,100.00
2022-10-12T23:40:18.776Z,100.00
2022-10-12T23:43:05.926Z,100.00
2022-10-12T23:45:38.986Z,100.00
2022-10-12T23:48:25.926Z,100.00
2022-10-12T23:50:59.997Z,100.00
2022-10-12T23:53:48.934Z,100.00
2022-10-12T23:56:28.917Z,100.00
2022-10-12T23:59:15.923Z,100.00
